sensor_id;sensor_type;location;lat;lon;timestamp;P1;durP1;ratioP1;P2;durP2;ratioP2
67640;SDS011;54434;50.096;20.082;2023-02-28T00:01:07;21.60;;;8.70;;
67640;SDS011;54434;50.096;20.082;2023-02-28T00:03:43;20.10;;;8.70;;
67640;SDS011;54434;50.096;20.082;2023-02-28T00:06:20;21.90;;;9.00;;
67640;SDS011;54434;50.096;20.082;2023-02-28T00:08:57;18.50;;;8.80;;
67640;SDS011;54434;50.096;20.082;2023-02-28T00:11:34;19.40;;;8.50;;
67640;SDS011;54434;50.096;20.082;2023-02-28T00:14:11;19.60;;;9.20;;
67640;SDS011;54434;50.096;20.082;2023-02-28T00:16:47;20.30;;;9.40;;
67640;SDS011;54434;50.096;20.082;2023-02-28T00:19:24;25.80;;;10.00;;
67640;SDS011;54434;50.096;20.082;2023-02-28T00:22:00;25.30;;;9.20;;
67640;SDS011;54434;50.096;20.082;2023-02-28T00:24:36;21.10;;;9.70;;
67640;SDS011;54434;50.096;20.082;2023-02-28T00:27:13;22.30;;;9.80;;
67640;SDS011;54434;50.096;20.082;2023-02-28T00:29:52;21.70;;;9.70;;
67640;SDS011;54434;50.096;20.082;2023-02-28T00:32:28;20.90;;;9.60;;
67640;SDS011;54434;50.096;20.082;2023-02-28T00:35:06;21.70;;;10.70;;
67640;SDS011;54434;50.096;20.082;2023-02-28T00:37:43;21.20;;;9.30;;
67640;SDS011;54434;50.096;20.082;2023-02-28T00:40:20;22.80;;;9.40;;
67640;SDS011;54434;50.096;20.082;2023-02-28T00:42:59;22.10;;;10.00;;
67640;SDS011;54434;50.096;20.082;2023-02-28T00:45:36;21.40;;;9.70;;
67640;SDS011;54434;50.096;20.082;2023-02-28T00:48:13;22.50;;;10.00;;
67640;SDS011;54434;50.096;20.082;2023-02-28T00:50:52;22.10;;;10.30;;
67640;SDS011;54434;50.096;20.082;2023-02-28T00:53:29;23.80;;;11.00;;
67640;SDS011;54434;50.096;20.082;2023-02-28T00:56:08;23.10;;;9.70;;
67640;SDS011;54434;50.096;20.082;2023-02-28T00:58:45;23.20;;;10.20;;
67640;SDS011;54434;50.096;20.082;2023-02-28T01:01:21;24.20;;;10.80;;
67640;SDS011;54434;50.096;20.082;2023-02-28T01:03:57;25.80;;;11.00;;
67640;SDS011;54434;50.096;20.082;2023-02-28T01:06:34;23.20;;;10.10;;
67640;SDS011;54434;50.096;20.082;2023-02-28T01:09:11;21.10;;;10.00;;
67640;SDS011;54434;50.096;20.082;2023-02-28T01:11:48;21.90;;;10.30;;
67640;SDS011;54434;50.096;20.082;2023-02-28T01:14:25;22.70;;;9.60;;
67640;SDS011;54434;50.096;20.082;2023-02-28T01:17:02;21.20;;;10.40;;
67640;SDS011;54434;50.096;20.082;2023-02-28T01:19:39;23.00;;;10.10;;
67640;SDS011;54434;50.096;20.082;2023-02-28T01:22:17;24.90;;;10.30;;
67640;SDS011;54434;50.096;20.082;2023-02-28T01:24:54;22.90;;;10.60;;
67640;SDS011;54434;50.096;20.082;2023-02-28T01:27:30;20.50;;;10.20;;
67640;SDS011;54434;50.096;20.082;2023-02-28T01:30:11;22.70;;;10.30;;
67640;SDS011;54434;50.096;20.082;2023-02-28T01:32:48;22.40;;;10.30;;
67640;SDS011;54434;50.096;20.082;2023-02-28T01:35:26;23.40;;;10.10;;
67640;SDS011;54434;50.096;20.082;2023-02-28T01:38:03;20.70;;;10.00;;
67640;SDS011;54434;50.096;20.082;2023-02-28T01:40:54;26.50;;;10.50;;
67640;SDS011;54434;50.096;20.082;2023-02-28T01:46:28;22.10;;;10.00;;
67640;SDS011;54434;50.096;20.082;2023-02-28T01:49:11;22.90;;;11.50;;
67640;SDS011;54434;50.096;20.082;2023-02-28T01:51:53;22.10;;;11.00;;
67640;SDS011;54434;50.096;20.082;2023-02-28T01:54:35;25.00;;;11.00;;
67640;SDS011;54434;50.096;20.082;2023-02-28T01:57:15;26.60;;;11.60;;
67640;SDS011;54434;50.096;20.082;2023-02-28T01:59:57;27.00;;;11.60;;
67640;SDS011;54434;50.096;20.082;2023-02-28T02:02:48;24.70;;;11.00;;
67640;SDS011;54434;50.096;20.082;2023-02-28T02:05:30;24.70;;;11.50;;
67640;SDS011;54434;50.096;20.082;2023-02-28T02:08:11;25.50;;;10.80;;
67640;SDS011;54434;50.096;20.082;2023-02-28T02:10:53;22.50;;;10.90;;
67640;SDS011;54434;50.096;20.082;2023-02-28T02:13:47;32.40;;;11.90;;
67640;SDS011;54434;50.096;20.082;2023-02-28T02:16:50;22.10;;;11.10;;
67640;SDS011;54434;50.096;20.082;2023-02-28T02:20:05;24.60;;;11.20;;
67640;SDS011;54434;50.096;20.082;2023-02-28T02:23:25;35.10;;;12.80;;
67640;SDS011;54434;50.096;20.082;2023-02-28T02:26:46;33.90;;;12.40;;
67640;SDS011;54434;50.096;20.082;2023-02-28T02:30:12;33.90;;;12.40;;
67640;SDS011;54434;50.096;20.082;2023-02-28T02:33:25;29.80;;;12.50;;
67640;SDS011;54434;50.096;20.082;2023-02-28T02:36:17;33.70;;;12.70;;
67640;SDS011;54434;50.096;20.082;2023-02-28T02:39:04;31.00;;;12.00;;
67640;SDS011;54434;50.096;20.082;2023-02-28T02:41:51;29.30;;;12.30;;
67640;SDS011;54434;50.096;20.082;2023-02-28T02:44:33;28.80;;;13.20;;
67640;SDS011;54434;50.096;20.082;2023-02-28T02:47:18;29.20;;;12.50;;
67640;SDS011;54434;50.096;20.082;2023-02-28T02:50:01;26.00;;;11.90;;
67640;SDS011;54434;50.096;20.082;2023-02-28T02:52:48;24.00;;;10.80;;
67640;SDS011;54434;50.096;20.082;2023-02-28T02:55:29;25.10;;;10.70;;
67640;SDS011;54434;50.096;20.082;2023-02-28T02:58:15;23.70;;;11.40;;
67640;SDS011;54434;50.096;20.082;2023-02-28T03:00:58;25.50;;;11.70;;
67640;SDS011;54434;50.096;20.082;2023-02-28T03:03:38;29.70;;;12.10;;
67640;SDS011;54434;50.096;20.082;2023-02-28T03:06:16;26.70;;;11.90;;
67640;SDS011;54434;50.096;20.082;2023-02-28T03:08:53;24.60;;;11.70;;
67640;SDS011;54434;50.096;20.082;2023-02-28T03:11:30;29.20;;;11.90;;
67640;SDS011;54434;50.096;20.082;2023-02-28T03:14:35;26.40;;;11.80;;
67640;SDS011;54434;50.096;20.082;2023-02-28T03:17:34;24.50;;;10.80;;
67640;SDS011;54434;50.096;20.082;2023-02-28T03:20:38;27.50;;;11.60;;
67640;SDS011;54434;50.096;20.082;2023-02-28T03:23:29;27.00;;;11.40;;
67640;SDS011;54434;50.096;20.082;2023-02-28T03:26:21;28.90;;;12.00;;
67640;SDS011;54434;50.096;20.082;2023-02-28T03:29:07;31.00;;;11.90;;
67640;SDS011;54434;50.096;20.082;2023-02-28T03:31:57;28.40;;;12.10;;
67640;SDS011;54434;50.096;20.082;2023-02-28T03:34:42;29.90;;;12.60;;
67640;SDS011;54434;50.096;20.082;2023-02-28T03:37:26;24.30;;;11.10;;
67640;SDS011;54434;50.096;20.082;2023-02-28T03:40:13;29.80;;;12.90;;
67640;SDS011;54434;50.096;20.082;2023-02-28T03:42:55;28.00;;;11.60;;
67640;SDS011;54434;50.096;20.082;2023-02-28T03:45:37;27.80;;;11.80;;
67640;SDS011;54434;50.096;20.082;2023-02-28T03:48:21;27.50;;;11.50;;
67640;SDS011;54434;50.096;20.082;2023-02-28T03:51:03;29.50;;;11.30;;
67640;SDS011;54434;50.096;20.082;2023-02-28T03:53:47;25.70;;;11.30;;
67640;SDS011;54434;50.096;20.082;2023-02-28T03:56:33;30.50;;;11.70;;
67640;SDS011;54434;50.096;20.082;2023-02-28T03:59:17;24.00;;;11.40;;
67640;SDS011;54434;50.096;20.082;2023-02-28T04:02:00;24.80;;;11.50;;
67640;SDS011;54434;50.096;20.082;2023-02-28T04:04:37;29.80;;;11.50;;
67640;SDS011;54434;50.096;20.082;2023-02-28T04:07:22;25.00;;;11.30;;
67640;SDS011;54434;50.096;20.082;2023-02-28T04:10:00;23.20;;;10.60;;
67640;SDS011;54434;50.096;20.082;2023-02-28T04:12:36;25.80;;;11.30;;
67640;SDS011;54434;50.096;20.082;2023-02-28T04:15:13;22.70;;;11.40;;
67640;SDS011;54434;50.096;20.082;2023-02-28T04:17:49;25.20;;;11.60;;
67640;SDS011;54434;50.096;20.082;2023-02-28T04:20:26;22.40;;;11.10;;
67640;SDS011;54434;50.096;20.082;2023-02-28T04:23:03;24.70;;;11.20;;
67640;SDS011;54434;50.096;20.082;2023-02-28T04:25:39;23.30;;;11.20;;
67640;SDS011;54434;50.096;20.082;2023-02-28T04:28:16;23.80;;;11.20;;
67640;SDS011;54434;50.096;20.082;2023-02-28T04:30:57;22.50;;;10.80;;
67640;SDS011;54434;50.096;20.082;2023-02-28T04:33:36;27.40;;;11.20;;
67640;SDS011;54434;50.096;20.082;2023-02-28T04:36:12;25.90;;;10.80;;
67640;SDS011;54434;50.096;20.082;2023-02-28T04:38:51;24.60;;;11.20;;
67640;SDS011;54434;50.096;20.082;2023-02-28T04:41:27;25.50;;;11.40;;
67640;SDS011;54434;50.096;20.082;2023-02-28T04:44:05;22.60;;;10.70;;
67640;SDS011;54434;50.096;20.082;2023-02-28T04:46:42;22.10;;;10.40;;
67640;SDS011;54434;50.096;20.082;2023-02-28T04:49:18;25.60;;;11.60;;
67640;SDS011;54434;50.096;20.082;2023-02-28T04:51:55;22.50;;;10.90;;
67640;SDS011;54434;50.096;20.082;2023-02-28T04:54:31;23.60;;;12.40;;
67640;SDS011;54434;50.096;20.082;2023-02-28T04:57:08;26.00;;;11.40;;
67640;SDS011;54434;50.096;20.082;2023-02-28T04:59:45;24.70;;;11.70;;
67640;SDS011;54434;50.096;20.082;2023-02-28T05:02:21;25.50;;;12.20;;
67640;SDS011;54434;50.096;20.082;2023-02-28T05:04:58;28.90;;;12.30;;
67640;SDS011;54434;50.096;20.082;2023-02-28T05:07:34;26.00;;;11.40;;
67640;SDS011;54434;50.096;20.082;2023-02-28T05:10:13;23.70;;;12.00;;
67640;SDS011;54434;50.096;20.082;2023-02-28T05:12:49;25.10;;;12.20;;
67640;SDS011;54434;50.096;20.082;2023-02-28T05:15:25;28.90;;;12.30;;
67640;SDS011;54434;50.096;20.082;2023-02-28T05:18:02;25.50;;;11.70;;
67640;SDS011;54434;50.096;20.082;2023-02-28T05:20:39;24.60;;;11.50;;
67640;SDS011;54434;50.096;20.082;2023-02-28T05:23:17;24.20;;;11.50;;
67640;SDS011;54434;50.096;20.082;2023-02-28T05:25:57;20.60;;;11.00;;
67640;SDS011;54434;50.096;20.082;2023-02-28T05:28:33;25.10;;;11.70;;
67640;SDS011;54434;50.096;20.082;2023-02-28T05:31:11;24.30;;;11.90;;
67640;SDS011;54434;50.096;20.082;2023-02-28T05:33:48;23.90;;;12.10;;
67640;SDS011;54434;50.096;20.082;2023-02-28T05:36:25;25.10;;;11.90;;
67640;SDS011;54434;50.096;20.082;2023-02-28T05:39:02;26.40;;;11.90;;
67640;SDS011;54434;50.096;20.082;2023-02-28T05:41:40;26.70;;;11.50;;
67640;SDS011;54434;50.096;20.082;2023-02-28T05:44:17;24.30;;;12.40;;
67640;SDS011;54434;50.096;20.082;2023-02-28T05:46:53;33.20;;;14.10;;
67640;SDS011;54434;50.096;20.082;2023-02-28T05:49:30;26.60;;;12.40;;
67640;SDS011;54434;50.096;20.082;2023-02-28T05:52:07;30.60;;;14.00;;
67640;SDS011;54434;50.096;20.082;2023-02-28T05:54:44;29.10;;;14.30;;
67640;SDS011;54434;50.096;20.082;2023-02-28T05:57:22;35.70;;;14.40;;
67640;SDS011;54434;50.096;20.082;2023-02-28T05:59:58;28.10;;;13.60;;
67640;SDS011;54434;50.096;20.082;2023-02-28T06:02:44;30.20;;;14.00;;
67640;SDS011;54434;50.096;20.082;2023-02-28T06:05:21;30.00;;;14.50;;
67640;SDS011;54434;50.096;20.082;2023-02-28T06:07:58;29.50;;;14.80;;
67640;SDS011;54434;50.096;20.082;2023-02-28T06:10:35;33.50;;;14.50;;
67640;SDS011;54434;50.096;20.082;2023-02-28T06:13:11;31.10;;;15.30;;
67640;SDS011;54434;50.096;20.082;2023-02-28T06:15:48;28.60;;;14.20;;
67640;SDS011;54434;50.096;20.082;2023-02-28T06:18:24;31.80;;;14.70;;
67640;SDS011;54434;50.096;20.082;2023-02-28T06:21:01;25.10;;;12.90;;
67640;SDS011;54434;50.096;20.082;2023-02-28T06:23:38;30.40;;;14.50;;
67640;SDS011;54434;50.096;20.082;2023-02-28T06:26:14;31.20;;;14.40;;
67640;SDS011;54434;50.096;20.082;2023-02-28T06:28:51;35.90;;;16.30;;
67640;SDS011;54434;50.096;20.082;2023-02-28T06:31:28;34.10;;;16.90;;
67640;SDS011;54434;50.096;20.082;2023-02-28T06:34:05;37.90;;;17.20;;
67640;SDS011;54434;50.096;20.082;2023-02-28T06:36:43;33.30;;;13.80;;
67640;SDS011;54434;50.096;20.082;2023-02-28T06:39:20;31.60;;;15.50;;
67640;SDS011;54434;50.096;20.082;2023-02-28T06:41:56;33.80;;;15.80;;
67640;SDS011;54434;50.096;20.082;2023-02-28T06:44:33;27.20;;;13.80;;
67640;SDS011;54434;50.096;20.082;2023-02-28T06:47:09;30.60;;;15.00;;
67640;SDS011;54434;50.096;20.082;2023-02-28T06:49:46;30.80;;;15.10;;
67640;SDS011;54434;50.096;20.082;2023-02-28T06:52:22;31.70;;;15.80;;
67640;SDS011;54434;50.096;20.082;2023-02-28T06:54:59;29.30;;;15.40;;
67640;SDS011;54434;50.096;20.082;2023-02-28T06:57:37;33.50;;;15.30;;
67640;SDS011;54434;50.096;20.082;2023-02-28T07:00:16;30.10;;;14.00;;
67640;SDS011;54434;50.096;20.082;2023-02-28T07:02:53;25.60;;;13.50;;
67640;SDS011;54434;50.096;20.082;2023-02-28T07:05:30;27.00;;;13.90;;
67640;SDS011;54434;50.096;20.082;2023-02-28T07:08:09;30.20;;;13.70;;
67640;SDS011;54434;50.096;20.082;2023-02-28T07:10:46;25.30;;;12.50;;
67640;SDS011;54434;50.096;20.082;2023-02-28T07:13:25;29.20;;;14.60;;
67640;SDS011;54434;50.096;20.082;2023-02-28T07:16:04;25.50;;;12.70;;
67640;SDS011;54434;50.096;20.082;2023-02-28T07:18:44;25.50;;;12.90;;
67640;SDS011;54434;50.096;20.082;2023-02-28T07:21:21;25.90;;;11.70;;
67640;SDS011;54434;50.096;20.082;2023-02-28T07:23:58;22.90;;;11.70;;
67640;SDS011;54434;50.096;20.082;2023-02-28T07:26:35;24.90;;;12.60;;
67640;SDS011;54434;50.096;20.082;2023-02-28T07:29:11;24.40;;;12.50;;
67640;SDS011;54434;50.096;20.082;2023-02-28T07:31:48;23.40;;;11.80;;
67640;SDS011;54434;50.096;20.082;2023-02-28T07:34:26;20.40;;;10.80;;
67640;SDS011;54434;50.096;20.082;2023-02-28T07:37:02;21.00;;;10.90;;
67640;SDS011;54434;50.096;20.082;2023-02-28T07:39:40;21.90;;;12.10;;
67640;SDS011;54434;50.096;20.082;2023-02-28T07:42:17;25.30;;;10.80;;
67640;SDS011;54434;50.096;20.082;2023-02-28T07:44:56;21.40;;;10.80;;
67640;SDS011;54434;50.096;20.082;2023-02-28T07:47:33;21.00;;;10.50;;
67640;SDS011;54434;50.096;20.082;2023-02-28T07:50:13;18.80;;;9.60;;
67640;SDS011;54434;50.096;20.082;2023-02-28T07:52:50;19.10;;;9.70;;
67640;SDS011;54434;50.096;20.082;2023-02-28T07:55:27;20.20;;;8.90;;
67640;SDS011;54434;50.096;20.082;2023-02-28T07:58:03;16.60;;;8.70;;
67640;SDS011;54434;50.096;20.082;2023-02-28T08:00:40;17.40;;;9.20;;
67640;SDS011;54434;50.096;20.082;2023-02-28T08:03:17;19.00;;;9.30;;
67640;SDS011;54434;50.096;20.082;2023-02-28T08:05:54;16.90;;;8.10;;
67640;SDS011;54434;50.096;20.082;2023-02-28T08:08:31;18.40;;;9.10;;
67640;SDS011;54434;50.096;20.082;2023-02-28T08:11:08;17.00;;;8.80;;
67640;SDS011;54434;50.096;20.082;2023-02-28T08:13:45;17.80;;;8.70;;
67640;SDS011;54434;50.096;20.082;2023-02-28T08:16:22;14.50;;;8.50;;
67640;SDS011;54434;50.096;20.082;2023-02-28T08:18:59;14.00;;;7.90;;
67640;SDS011;54434;50.096;20.082;2023-02-28T08:21:36;18.20;;;8.00;;
67640;SDS011;54434;50.096;20.082;2023-02-28T08:24:13;15.20;;;7.60;;
67640;SDS011;54434;50.096;20.082;2023-02-28T08:26:49;13.60;;;7.90;;
67640;SDS011;54434;50.096;20.082;2023-02-28T08:29:26;13.40;;;6.30;;
67640;SDS011;54434;50.096;20.082;2023-02-28T08:32:04;11.70;;;6.20;;
67640;SDS011;54434;50.096;20.082;2023-02-28T08:34:52;13.80;;;6.40;;
67640;SDS011;54434;50.096;20.082;2023-02-28T08:37:29;10.90;;;5.70;;
67640;SDS011;54434;50.096;20.082;2023-02-28T08:40:10;11.10;;;6.20;;
67640;SDS011;54434;50.096;20.082;2023-02-28T08:42:51;11.50;;;5.90;;
67640;SDS011;54434;50.096;20.082;2023-02-28T08:45:28;12.90;;;6.00;;
67640;SDS011;54434;50.096;20.082;2023-02-28T08:48:05;11.70;;;5.20;;
67640;SDS011;54434;50.096;20.082;2023-02-28T08:50:41;9.50;;;4.80;;
67640;SDS011;54434;50.096;20.082;2023-02-28T08:53:28;11.10;;;5.10;;
67640;SDS011;54434;50.096;20.082;2023-02-28T08:56:07;9.70;;;5.30;;
67640;SDS011;54434;50.096;20.082;2023-02-28T08:58:46;11.30;;;5.20;;
67640;SDS011;54434;50.096;20.082;2023-02-28T09:01:25;10.00;;;5.50;;
67640;SDS011;54434;50.096;20.082;2023-02-28T09:04:04;8.70;;;4.70;;
67640;SDS011;54434;50.096;20.082;2023-02-28T09:06:41;8.60;;;4.90;;
67640;SDS011;54434;50.096;20.082;2023-02-28T09:09:18;10.10;;;4.70;;
67640;SDS011;54434;50.096;20.082;2023-02-28T09:11:56;9.30;;;4.90;;
67640;SDS011;54434;50.096;20.082;2023-02-28T09:14:33;8.40;;;4.20;;
67640;SDS011;54434;50.096;20.082;2023-02-28T09:17:10;8.70;;;4.80;;
67640;SDS011;54434;50.096;20.082;2023-02-28T09:19:48;11.20;;;5.70;;
67640;SDS011;54434;50.096;20.082;2023-02-28T09:22:25;12.40;;;5.30;;
67640;SDS011;54434;50.096;20.082;2023-02-28T09:25:01;12.60;;;5.90;;
67640;SDS011;54434;50.096;20.082;2023-02-28T09:27:38;12.50;;;6.00;;
67640;SDS011;54434;50.096;20.082;2023-02-28T09:30:17;9.50;;;5.20;;
67640;SDS011;54434;50.096;20.082;2023-02-28T09:32:53;10.30;;;5.70;;
67640;SDS011;54434;50.096;20.082;2023-02-28T09:35:30;12.40;;;5.60;;
67640;SDS011;54434;50.096;20.082;2023-02-28T09:38:07;11.40;;;6.50;;
67640;SDS011;54434;50.096;20.082;2023-02-28T09:40:50;10.90;;;6.00;;
67640;SDS011;54434;50.096;20.082;2023-02-28T09:43:33;13.90;;;6.30;;
67640;SDS011;54434;50.096;20.082;2023-02-28T09:46:24;14.30;;;7.10;;
67640;SDS011;54434;50.096;20.082;2023-02-28T09:49:11;15.40;;;7.40;;
67640;SDS011;54434;50.096;20.082;2023-02-28T09:51:57;12.90;;;6.10;;
67640;SDS011;54434;50.096;20.082;2023-02-28T09:54:37;14.50;;;6.70;;
67640;SDS011;54434;50.096;20.082;2023-02-28T09:57:29;9.90;;;5.60;;
67640;SDS011;54434;50.096;20.082;2023-02-28T10:00:18;13.50;;;6.70;;
67640;SDS011;54434;50.096;20.082;2023-02-28T10:03:30;13.40;;;7.00;;
67640;SDS011;54434;50.096;20.082;2023-02-28T10:06:17;14.10;;;7.20;;
67640;SDS011;54434;50.096;20.082;2023-02-28T10:09:00;12.00;;;6.70;;
67640;SDS011;54434;50.096;20.082;2023-02-28T10:11:43;15.10;;;6.50;;
67640;SDS011;54434;50.096;20.082;2023-02-28T10:14:23;11.90;;;7.00;;
67640;SDS011;54434;50.096;20.082;2023-02-28T10:17:08;13.10;;;7.20;;
67640;SDS011;54434;50.096;20.082;2023-02-28T10:19:56;12.40;;;6.80;;
67640;SDS011;54434;50.096;20.082;2023-02-28T10:22:50;15.30;;;6.60;;
67640;SDS011;54434;50.096;20.082;2023-02-28T10:25:41;10.80;;;5.20;;
67640;SDS011;54434;50.096;20.082;2023-02-28T10:28:26;11.40;;;6.20;;
67640;SDS011;54434;50.096;20.082;2023-02-28T10:31:06;11.00;;;5.70;;
67640;SDS011;54434;50.096;20.082;2023-02-28T10:33:47;10.50;;;6.00;;
67640;SDS011;54434;50.096;20.082;2023-02-28T10:36:24;11.00;;;6.10;;
67640;SDS011;54434;50.096;20.082;2023-02-28T10:39:02;13.00;;;6.40;;
67640;SDS011;54434;50.096;20.082;2023-02-28T10:42:25;13.20;;;6.30;;
67640;SDS011;54434;50.096;20.082;2023-02-28T10:45:16;11.40;;;6.70;;
67640;SDS011;54434;50.096;20.082;2023-02-28T10:47:56;11.40;;;6.30;;
67640;SDS011;54434;50.096;20.082;2023-02-28T10:50:44;14.00;;;6.50;;
67640;SDS011;54434;50.096;20.082;2023-02-28T10:53:37;11.10;;;6.10;;
67640;SDS011;54434;50.096;20.082;2023-02-28T10:56:33;13.20;;;6.30;;
67640;SDS011;54434;50.096;20.082;2023-02-28T10:59:31;10.60;;;6.10;;
67640;SDS011;54434;50.096;20.082;2023-02-28T11:02:33;10.00;;;5.00;;
67640;SDS011;54434;50.096;20.082;2023-02-28T11:05:29;11.30;;;6.00;;
67640;SDS011;54434;50.096;20.082;2023-02-28T11:08:14;11.90;;;6.40;;
67640;SDS011;54434;50.096;20.082;2023-02-28T11:10:58;10.30;;;6.40;;
67640;SDS011;54434;50.096;20.082;2023-02-28T11:13:38;9.20;;;5.10;;
67640;SDS011;54434;50.096;20.082;2023-02-28T11:16:16;11.10;;;6.10;;
67640;SDS011;54434;50.096;20.082;2023-02-28T11:18:55;9.30;;;5.40;;
67640;SDS011;54434;50.096;20.082;2023-02-28T11:21:36;9.20;;;5.40;;
67640;SDS011;54434;50.096;20.082;2023-02-28T11:24:24;12.40;;;6.40;;
67640;SDS011;54434;50.096;20.082;2023-02-28T11:27:03;11.10;;;6.10;;
67640;SDS011;54434;50.096;20.082;2023-02-28T11:29:48;13.00;;;6.20;;
67640;SDS011;54434;50.096;20.082;2023-02-28T11:32:25;12.60;;;6.20;;
67640;SDS011;54434;50.096;20.082;2023-02-28T11:35:14;11.90;;;6.00;;
67640;SDS011;54434;50.096;20.082;2023-02-28T11:37:55;10.90;;;6.10;;
67640;SDS011;54434;50.096;20.082;2023-02-28T11:40:43;11.20;;;5.20;;
67640;SDS011;54434;50.096;20.082;2023-02-28T11:43:42;12.40;;;6.30;;
67640;SDS011;54434;50.096;20.082;2023-02-28T11:46:37;10.40;;;6.30;;
67640;SDS011;54434;50.096;20.082;2023-02-28T11:49:32;11.80;;;6.40;;
67640;SDS011;54434;50.096;20.082;2023-02-28T11:52:32;9.90;;;5.30;;
67640;SDS011;54434;50.096;20.082;2023-02-28T11:55:23;11.60;;;6.60;;
67640;SDS011;54434;50.096;20.082;2023-02-28T11:58:29;10.20;;;5.80;;
67640;SDS011;54434;50.096;20.082;2023-02-28T12:01:26;10.90;;;5.50;;
67640;SDS011;54434;50.096;20.082;2023-02-28T12:04:27;10.40;;;5.30;;
67640;SDS011;54434;50.096;20.082;2023-02-28T12:07:16;11.20;;;6.20;;
67640;SDS011;54434;50.096;20.082;2023-02-28T12:10:09;12.10;;;6.70;;
67640;SDS011;54434;50.096;20.082;2023-02-28T12:13:05;10.30;;;5.90;;
67640;SDS011;54434;50.096;20.082;2023-02-28T12:16:18;10.40;;;6.30;;
67640;SDS011;54434;50.096;20.082;2023-02-28T12:19:16;12.70;;;6.50;;
67640;SDS011;54434;50.096;20.082;2023-02-28T12:22:31;9.70;;;5.40;;
67640;SDS011;54434;50.096;20.082;2023-02-28T12:26:01;13.20;;;6.40;;
67640;SDS011;54434;50.096;20.082;2023-02-28T12:28:47;12.30;;;6.50;;
67640;SDS011;54434;50.096;20.082;2023-02-28T12:31:30;11.60;;;6.70;;
67640;SDS011;54434;50.096;20.082;2023-02-28T12:34:15;11.90;;;6.90;;
67640;SDS011;54434;50.096;20.082;2023-02-28T12:36:55;12.80;;;6.30;;
67640;SDS011;54434;50.096;20.082;2023-02-28T12:39:37;11.80;;;6.10;;
67640;SDS011;54434;50.096;20.082;2023-02-28T12:42:29;11.00;;;6.30;;
67640;SDS011;54434;50.096;20.082;2023-02-28T12:45:13;12.60;;;6.50;;
67640;SDS011;54434;50.096;20.082;2023-02-28T12:47:58;18.60;;;10.00;;
67640;SDS011;54434;50.096;20.082;2023-02-28T12:50:39;12.20;;;5.40;;
67640;SDS011;54434;50.096;20.082;2023-02-28T12:53:23;9.70;;;5.30;;
67640;SDS011;54434;50.096;20.082;2023-02-28T12:56:15;9.60;;;5.50;;
67640;SDS011;54434;50.096;20.082;2023-02-28T12:59:00;12.30;;;6.20;;
67640;SDS011;54434;50.096;20.082;2023-02-28T13:01:54;10.00;;;5.90;;
67640;SDS011;54434;50.096;20.082;2023-02-28T13:09:05;12.50;;;6.60;;
67640;SDS011;54434;50.096;20.082;2023-02-28T13:11:49;10.70;;;6.20;;
67640;SDS011;54434;50.096;20.082;2023-02-28T13:14:34;10.70;;;6.10;;
67640;SDS011;54434;50.096;20.082;2023-02-28T13:17:20;9.00;;;5.20;;
67640;SDS011;54434;50.096;20.082;2023-02-28T13:20:02;10.60;;;6.50;;
67640;SDS011;54434;50.096;20.082;2023-02-28T13:22:51;13.10;;;6.70;;
67640;SDS011;54434;50.096;20.082;2023-02-28T13:25:54;11.70;;;5.90;;
67640;SDS011;54434;50.096;20.082;2023-02-28T13:29:02;9.70;;;5.70;;
67640;SDS011;54434;50.096;20.082;2023-02-28T13:32:33;11.50;;;5.60;;
67640;SDS011;54434;50.096;20.082;2023-02-28T13:35:42;10.90;;;6.50;;
67640;SDS011;54434;50.096;20.082;2023-02-28T13:38:37;13.80;;;6.50;;
67640;SDS011;54434;50.096;20.082;2023-02-28T13:41:56;11.50;;;6.30;;
67640;SDS011;54434;50.096;20.082;2023-02-28T13:45:31;11.30;;;6.20;;
67640;SDS011;54434;50.096;20.082;2023-02-28T13:48:26;15.70;;;8.80;;
67640;SDS011;54434;50.096;20.082;2023-02-28T13:51:37;11.70;;;5.80;;
67640;SDS011;54434;50.096;20.082;2023-02-28T13:54:28;11.90;;;6.20;;
67640;SDS011;54434;50.096;20.082;2023-02-28T13:57:32;11.50;;;6.30;;
67640;SDS011;54434;50.096;20.082;2023-02-28T14:00:35;9.80;;;5.60;;
67640;SDS011;54434;50.096;20.082;2023-02-28T14:03:36;13.20;;;6.30;;
67640;SDS011;54434;50.096;20.082;2023-02-28T14:06:26;12.40;;;6.50;;
67640;SDS011;54434;50.096;20.082;2023-02-28T14:09:18;11.80;;;6.40;;
67640;SDS011;54434;50.096;20.082;2023-02-28T14:15:55;11.00;;;6.20;;
67640;SDS011;54434;50.096;20.082;2023-02-28T14:18:36;12.20;;;6.70;;
67640;SDS011;54434;50.096;20.082;2023-02-28T14:21:24;12.50;;;7.00;;
67640;SDS011;54434;50.096;20.082;2023-02-28T14:24:56;11.90;;;6.50;;
67640;SDS011;54434;50.096;20.082;2023-02-28T14:27:52;11.60;;;6.50;;
67640;SDS011;54434;50.096;20.082;2023-02-28T14:30:56;14.30;;;6.60;;
67640;SDS011;54434;50.096;20.082;2023-02-28T14:33:47;12.20;;;6.70;;
67640;SDS011;54434;50.096;20.082;2023-02-28T14:36:41;12.30;;;7.30;;
67640;SDS011;54434;50.096;20.082;2023-02-28T14:39:21;11.80;;;7.20;;
67640;SDS011;54434;50.096;20.082;2023-02-28T14:42:00;12.80;;;6.60;;
67640;SDS011;54434;50.096;20.082;2023-02-28T14:44:38;14.30;;;7.60;;
67640;SDS011;54434;50.096;20.082;2023-02-28T14:47:17;13.50;;;7.50;;
67640;SDS011;54434;50.096;20.082;2023-02-28T14:49:55;12.20;;;6.90;;
67640;SDS011;54434;50.096;20.082;2023-02-28T14:52:34;12.90;;;6.40;;
67640;SDS011;54434;50.096;20.082;2023-02-28T14:55:17;13.90;;;7.10;;
67640;SDS011;54434;50.096;20.082;2023-02-28T14:57:58;15.40;;;7.30;;
67640;SDS011;54434;50.096;20.082;2023-02-28T15:00:48;11.50;;;6.20;;
67640;SDS011;54434;50.096;20.082;2023-02-28T15:03:33;12.80;;;6.60;;
67640;SDS011;54434;50.096;20.082;2023-02-28T15:06:16;14.60;;;7.10;;
67640;SDS011;54434;50.096;20.082;2023-02-28T15:09:17;15.40;;;8.10;;
67640;SDS011;54434;50.096;20.082;2023-02-28T15:11:55;16.40;;;8.00;;
67640;SDS011;54434;50.096;20.082;2023-02-28T15:14:32;14.90;;;7.80;;
67640;SDS011;54434;50.096;20.082;2023-02-28T15:17:20;13.80;;;7.00;;
67640;SDS011;54434;50.096;20.082;2023-02-28T15:20:00;11.90;;;6.70;;
67640;SDS011;54434;50.096;20.082;2023-02-28T15:22:39;16.00;;;8.60;;
67640;SDS011;54434;50.096;20.082;2023-02-28T15:25:20;16.20;;;7.10;;
67640;SDS011;54434;50.096;20.082;2023-02-28T15:27:59;12.50;;;7.10;;
67640;SDS011;54434;50.096;20.082;2023-02-28T15:30:36;12.00;;;6.70;;
67640;SDS011;54434;50.096;20.082;2023-02-28T15:33:24;13.60;;;7.50;;
67640;SDS011;54434;50.096;20.082;2023-02-28T15:36:15;14.00;;;7.40;;
67640;SDS011;54434;50.096;20.082;2023-02-28T15:38:55;13.10;;;8.00;;
67640;SDS011;54434;50.096;20.082;2023-02-28T15:41:46;16.40;;;8.60;;
67640;SDS011;54434;50.096;20.082;2023-02-28T15:44:36;13.70;;;7.20;;
67640;SDS011;54434;50.096;20.082;2023-02-28T15:47:20;15.10;;;7.60;;
67640;SDS011;54434;50.096;20.082;2023-02-28T15:50:01;12.20;;;7.20;;
67640;SDS011;54434;50.096;20.082;2023-02-28T15:52:45;13.60;;;7.60;;
67640;SDS011;54434;50.096;20.082;2023-02-28T15:55:26;15.90;;;7.70;;
67640;SDS011;54434;50.096;20.082;2023-02-28T15:58:04;13.50;;;7.00;;
67640;SDS011;54434;50.096;20.082;2023-02-28T16:04:03;15.70;;;7.30;;
67640;SDS011;54434;50.096;20.082;2023-02-28T16:06:43;14.60;;;7.00;;